PWSweather.com
Personal Weather Stations
Station Observations
WD4JKH
Forsyth, GA 31029

Forsyth, GA 31029

Lat: 33.033225, Lon: -83.927995

Elevation: 709

Station Type: Davis Vantage VUE

High Low Average
Temperature 72.8°F22.7°C 47.2°F8.4°C 60.2°F15.7°C
Dew Point 46.6°F8.1°C 31.9°F-0.1°C 39.3°F4.1°C
Winds 10.2 mph 16.4 kmh Calm Calm 3.0 mph W4.8 kmh W
Wind Gusts 19.0 mph30.6 kmh 1.0 mph1.6 kmh 9.0 mph14.5 kmh
Humidity 90% 23% 52%
Pressure 30.17 in1021.7 mb 29.99 in1015.6 mb -
Precipitation 0.00 in0.0 mm - -
Hour Temp Dew Point Humidity Winds Wind Gusts Pressure Precip Precip Rate Daily Precip Total
12:01 AM 49.7°F9.8°C 46.6°F8.1°C 89% 1.5 mph SW2.4 kmh SW 3.0 mph4.8 kmh 30.00 in1015.9 mb 0.00 in0.0 mm 0.00 in0.0 mm 0.00 in0.0 mm
12:06 AM 49.7°F9.8°C 46.6°F8.1°C 89% 2.1 mph SW3.4 kmh SW 4.0 mph6.4 kmh 30.00 in1015.9 mb 0.00 in0.0 mm 0.00 in0.0 mm 0.00 in0.0 mm
12:11 AM 49.7°F9.8°C 46.6°F8.1°C 89% 2.5 mph SW4.0 kmh SW 5.0 mph8.0 kmh 30.00 in1015.9 mb 0.00 in0.0 mm 0.00 in0.0 mm 0.00 in0.0 mm
12:16 AM 49.7°F9.8°C 46.6°F8.1°C 89% 2.1 mph SW3.4 kmh SW 5.0 mph8.0 kmh 30.00 in1015.9 mb 0.00 in0.0 mm 0.00 in0.0 mm 0.00 in0.0 mm
12:21 AM 49.6°F9.8°C 46.5°F8.1°C 89% 2.1 mph SW3.4 kmh SW 5.0 mph8.0 kmh 30.00 in1015.9 mb 0.00 in0.0 mm 0.00 in0.0 mm 0.00 in0.0 mm
12:26 AM 49.5°F9.7°C 46.4°F8.0°C 89% 2.1 mph SW3.4 kmh SW 5.0 mph8.0 kmh 30.00 in1015.9 mb 0.00 in0.0 mm 0.00 in0.0 mm 0.00 in0.0 mm
12:31 AM 49.5°F9.7°C 46.4°F8.0°C 89% 2.1 mph SW3.4 kmh SW 6.0 mph9.7 kmh 30.00 in1015.9 mb 0.00 in0.0 mm 0.00 in0.0 mm 0.00 in0.0 mm
12:36 AM 49.4°F9.7°C 46.3°F7.9°C 89% 2.5 mph SW4.0 kmh SW 8.0 mph12.9 kmh 30.00 in1015.9 mb 0.00 in0.0 mm 0.00 in0.0 mm 0.00 in0.0 mm
12:41 AM 49.3°F9.6°C 46.2°F7.9°C 89% 2.3 mph SW3.7 kmh SW 8.0 mph12.9 kmh 30.00 in1015.9 mb 0.00 in0.0 mm 0.00 in0.0 mm 0.00 in0.0 mm
12:46 AM 49.1°F9.5°C 46.3°F7.9°C 90% 1.9 mph SW3.1 kmh SW 8.0 mph12.9 kmh 30.00 in1015.9 mb 0.00 in0.0 mm 0.00 in0.0 mm 0.00 in0.0 mm
12:51 AM 49.0°F9.4°C 46.2°F7.9°C 90% 2.3 mph SW3.7 kmh SW 7.0 mph11.3 kmh 30.00 in1015.9 mb 0.00 in0.0 mm 0.00 in0.0 mm 0.00 in0.0 mm
12:56 AM 48.9°F9.4°C 46.1°F7.8°C 90% 2.1 mph SW3.4 kmh SW 7.0 mph11.3 kmh 30.00 in1015.9 mb 0.00 in0.0 mm 0.00 in0.0 mm 0.00 in0.0 mm
01:01 AM 48.8°F9.3°C 46.0°F7.8°C 90% 2.1 mph SW3.4 kmh SW 6.0 mph9.7 kmh 30.00 in1015.9 mb 0.00 in0.0 mm 0.00 in0.0 mm 0.00 in0.0 mm
01:06 AM 48.7°F9.3°C 45.9°F7.7°C 90% 1.7 mph SW2.7 kmh SW 6.0 mph9.7 kmh 30.00 in1015.9 mb 0.00 in0.0 mm 0.00 in0.0 mm 0.00 in0.0 mm
01:11 AM 48.6°F9.2°C 45.8°F7.7°C 90% 2.2 mph SW3.5 kmh SW 6.0 mph9.7 kmh 30.00 in1015.9 mb 0.00 in0.0 mm 0.00 in0.0 mm 0.00 in0.0 mm
01:16 AM 48.5°F9.2°C 45.7°F7.6°C 90% 2.1 mph SW3.4 kmh SW 6.0 mph9.7 kmh 30.00 in1015.9 mb 0.00 in0.0 mm 0.00 in0.0 mm 0.00 in0.0 mm
01:21 AM 48.5°F9.2°C 45.7°F7.6°C 90% 2.0 mph SW3.2 kmh SW 7.0 mph11.3 kmh 30.00 in1015.9 mb 0.00 in0.0 mm 0.00 in0.0 mm 0.00 in0.0 mm
01:26 AM 48.5°F9.2°C 45.7°F7.6°C 90% 1.7 mph SW2.7 kmh SW 7.0 mph11.3 kmh 30.00 in1015.9 mb 0.00 in0.0 mm 0.00 in0.0 mm 0.00 in0.0 mm
01:31 AM 48.5°F9.2°C 45.7°F7.6°C 90% 2.0 mph SW3.2 kmh SW 7.0 mph11.3 kmh 29.99 in1015.6 mb 0.00 in0.0 mm 0.00 in0.0 mm 0.00 in0.0 mm
01:36 AM 48.4°F9.1°C 45.3°F7.4°C 89% 2.0 mph WSW3.2 kmh WSW 6.0 mph9.7 kmh 30.00 in1015.9 mb 0.00 in0.0 mm 0.00 in0.0 mm 0.00 in0.0 mm
01:40 AM 48.4°F9.1°C 45.3°F7.4°C 89% 2.1 mph WSW3.4 kmh WSW 6.0 mph9.7 kmh 29.99 in1015.6 mb 0.00 in0.0 mm 0.00 in0.0 mm 0.00 in0.0 mm
01:45 AM 48.5°F9.2°C 45.4°F7.4°C 89% 2.9 mph SW4.7 kmh SW 6.0 mph9.7 kmh 30.00 in1015.9 mb 0.00 in0.0 mm 0.00 in0.0 mm 0.00 in0.0 mm
01:50 AM 48.6°F9.2°C 45.2°F7.3°C 88% 2.0 mph WSW3.2 kmh WSW 6.0 mph9.7 kmh 30.00 in1015.9 mb 0.00 in0.0 mm 0.00 in0.0 mm 0.00 in0.0 mm
01:55 AM 48.6°F9.2°C 45.2°F7.3°C 88% 1.2 mph WSW1.9 kmh WSW 7.0 mph11.3 kmh 30.00 in1015.9 mb 0.00 in0.0 mm 0.00 in0.0 mm 0.00 in0.0 mm
02:00 AM 48.7°F9.3°C 45.3°F7.4°C 88% 1.6 mph SW2.6 kmh SW 7.0 mph11.3 kmh 30.00 in1015.9 mb 0.00 in0.0 mm 0.00 in0.0 mm 0.00 in0.0 mm
02:05 AM 48.6°F9.2°C 45.2°F7.3°C 88% 1.3 mph SW2.1 kmh SW 7.0 mph11.3 kmh 30.00 in1015.9 mb 0.00 in0.0 mm 0.00 in0.0 mm 0.00 in0.0 mm
02:10 AM 48.5°F9.2°C 45.1°F7.3°C 88% 2.8 mph SW4.5 kmh SW 7.0 mph11.3 kmh 30.00 in1015.9 mb 0.00 in0.0 mm 0.00 in0.0 mm 0.00 in0.0 mm
02:15 AM 48.6°F9.2°C 44.9°F7.2°C 87% 3.5 mph SW5.6 kmh SW 7.0 mph11.3 kmh 30.00 in1015.9 mb 0.00 in0.0 mm 0.00 in0.0 mm 0.00 in0.0 mm
02:20 AM 48.6°F9.2°C 44.9°F7.2°C 87% 2.6 mph SW4.2 kmh SW 7.0 mph11.3 kmh 30.00 in1015.9 mb 0.00 in0.0 mm 0.00 in0.0 mm 0.00 in0.0 mm
02:25 AM 48.5°F9.2°C 44.8°F7.1°C 87% 1.8 mph SW2.9 kmh SW 7.0 mph11.3 kmh 30.00 in1015.9 mb 0.00 in0.0 mm 0.00 in0.0 mm 0.00 in0.0 mm
02:30 AM 48.5°F9.2°C 44.8°F7.1°C 87% 2.7 mph SW4.3 kmh SW 7.0 mph11.3 kmh 30.00 in1015.9 mb 0.00 in0.0 mm 0.00 in0.0 mm 0.00 in0.0 mm
02:35 AM 48.5°F9.2°C 44.8°F7.1°C 87% 2.4 mph SW3.9 kmh SW 6.0 mph9.7 kmh 30.00 in1015.9 mb 0.00 in0.0 mm 0.00 in0.0 mm 0.00 in0.0 mm
02:40 AM 48.5°F9.2°C 44.8°F7.1°C 87% 2.4 mph WSW3.9 kmh WSW 6.0 mph9.7 kmh 30.00 in1015.9 mb 0.00 in0.0 mm 0.00 in0.0 mm 0.00 in0.0 mm
02:45 AM 48.5°F9.2°C 44.8°F7.1°C 87% 2.2 mph SW3.5 kmh SW 6.0 mph9.7 kmh 30.00 in1015.9 mb 0.00 in0.0 mm 0.00 in0.0 mm 0.00 in0.0 mm
02:50 AM 48.5°F9.2°C 44.8°F7.1°C 87% 3.1 mph SW5.0 kmh SW 8.0 mph12.9 kmh 30.00 in1015.9 mb 0.00 in0.0 mm 0.00 in0.0 mm 0.00 in0.0 mm
02:55 AM 48.5°F9.2°C 44.8°F7.1°C 87% 2.4 mph SW3.9 kmh SW 8.0 mph12.9 kmh 30.00 in1015.9 mb 0.00 in0.0 mm 0.00 in0.0 mm 0.00 in0.0 mm
03:00 AM 48.5°F9.2°C 44.8°F7.1°C 87% 2.9 mph SW4.7 kmh SW 8.0 mph12.9 kmh 30.01 in1016.3 mb 0.00 in0.0 mm 0.00 in0.0 mm 0.00 in0.0 mm
03:05 AM 48.5°F9.2°C 44.8°F7.1°C 87% 1.9 mph SW3.1 kmh SW 8.0 mph12.9 kmh 30.01 in1016.3 mb 0.00 in0.0 mm 0.00 in0.0 mm 0.00 in0.0 mm
03:10 AM 48.5°F9.2°C 44.5°F6.9°C 86% 2.4 mph SW3.9 kmh SW 7.0 mph11.3 kmh 30.01 in1016.3 mb 0.00 in0.0 mm 0.00 in0.0 mm 0.00 in0.0 mm
03:15 AM 48.6°F9.2°C 44.6°F7.0°C 86% 3.6 mph SW5.8 kmh SW 7.0 mph11.3 kmh 30.01 in1016.3 mb 0.00 in0.0 mm 0.00 in0.0 mm 0.00 in0.0 mm
03:20 AM 48.6°F9.2°C 44.6°F7.0°C 86% 2.1 mph SW3.4 kmh SW 8.0 mph12.9 kmh 30.01 in1016.3 mb 0.00 in0.0 mm 0.00 in0.0 mm 0.00 in0.0 mm
03:25 AM 48.5°F9.2°C 44.5°F6.9°C 86% 3.8 mph SW6.1 kmh SW 8.0 mph12.9 kmh 30.01 in1016.3 mb 0.00 in0.0 mm 0.00 in0.0 mm 0.00 in0.0 mm
03:30 AM 48.6°F9.2°C 44.6°F7.0°C 86% 3.0 mph WSW4.8 kmh WSW 8.0 mph12.9 kmh 30.01 in1016.3 mb 0.00 in0.0 mm 0.00 in0.0 mm 0.00 in0.0 mm
03:35 AM 48.6°F9.2°C 44.6°F7.0°C 86% 2.5 mph SW4.0 kmh SW 8.0 mph12.9 kmh 30.01 in1016.3 mb 0.00 in0.0 mm 0.00 in0.0 mm 0.00 in0.0 mm
03:40 AM 48.5°F9.2°C 44.5°F6.9°C 86% 2.5 mph SW4.0 kmh SW 8.0 mph12.9 kmh 30.02 in1016.6 mb 0.00 in0.0 mm 0.00 in0.0 mm 0.00 in0.0 mm
03:45 AM 48.4°F9.1°C 44.4°F6.9°C 86% 2.8 mph WSW4.5 kmh WSW 8.0 mph12.9 kmh 30.02 in1016.6 mb 0.00 in0.0 mm 0.00 in0.0 mm 0.00 in0.0 mm
03:50 AM 48.3°F9.1°C 44.3°F6.8°C 86% 3.4 mph WSW5.5 kmh WSW 8.0 mph12.9 kmh 30.02 in1016.6 mb 0.00 in0.0 mm 0.00 in0.0 mm 0.00 in0.0 mm
03:55 AM 48.3°F9.1°C 44.3°F6.8°C 86% 1.9 mph SW3.1 kmh SW 8.0 mph12.9 kmh 30.02 in1016.6 mb 0.00 in0.0 mm 0.00 in0.0 mm 0.00 in0.0 mm
04:00 AM 48.3°F9.1°C 44.3°F6.8°C 86% 2.4 mph WSW3.9 kmh WSW 7.0 mph11.3 kmh 30.02 in1016.6 mb 0.00 in0.0 mm 0.00 in0.0 mm 0.00 in0.0 mm
04:05 AM 48.2°F9.0°C 44.5°F6.9°C 87% 1.9 mph WSW3.1 kmh WSW 7.0 mph11.3 kmh 30.02 in1016.6 mb 0.00 in0.0 mm 0.00 in0.0 mm 0.00 in0.0 mm
04:10 AM 48.1°F8.9°C 44.1°F6.7°C 86% 1.8 mph WSW2.9 kmh WSW 7.0 mph11.3 kmh 30.03 in1016.9 mb 0.00 in0.0 mm 0.00 in0.0 mm 0.00 in0.0 mm
04:15 AM 48.1°F8.9°C 44.1°F6.7°C 86% 2.9 mph WSW4.7 kmh WSW 7.0 mph11.3 kmh 30.03 in1016.9 mb 0.00 in0.0 mm 0.00 in0.0 mm 0.00 in0.0 mm
04:20 AM 48.2°F9.0°C 44.2°F6.8°C 86% 1.9 mph WSW3.1 kmh WSW 7.0 mph11.3 kmh 30.03 in1016.9 mb 0.00 in0.0 mm 0.00 in0.0 mm 0.00 in0.0 mm
04:26 AM 48.1°F8.9°C 44.1°F6.7°C 86% 2.4 mph WSW3.9 kmh WSW 8.0 mph12.9 kmh 30.03 in1016.9 mb 0.00 in0.0 mm 0.00 in0.0 mm 0.00 in0.0 mm
04:31 AM 48.0°F8.9°C 44.0°F6.7°C 86% 2.7 mph WSW4.3 kmh WSW 8.0 mph12.9 kmh 30.03 in1016.9 mb 0.00 in0.0 mm 0.00 in0.0 mm 0.00 in0.0 mm
04:36 AM 48.0°F8.9°C 44.0°F6.7°C 86% 2.2 mph WSW3.5 kmh WSW 8.0 mph12.9 kmh 30.03 in1016.9 mb 0.00 in0.0 mm 0.00 in0.0 mm 0.00 in0.0 mm
04:41 AM 48.0°F8.9°C 43.7°F6.5°C 85% 2.6 mph WSW4.2 kmh WSW 8.0 mph12.9 kmh 30.03 in1016.9 mb 0.00 in0.0 mm 0.00 in0.0 mm 0.00 in0.0 mm
04:46 AM 48.0°F8.9°C 43.7°F6.5°C 85% 2.2 mph WSW3.5 kmh WSW 7.0 mph11.3 kmh 30.03 in1016.9 mb 0.00 in0.0 mm 0.00 in0.0 mm 0.00 in0.0 mm
04:51 AM 48.1°F8.9°C 43.5°F6.4°C 84% 3.1 mph WSW5.0 kmh WSW 7.0 mph11.3 kmh 30.03 in1016.9 mb 0.00 in0.0 mm 0.00 in0.0 mm 0.00 in0.0 mm
04:56 AM 48.1°F8.9°C 43.5°F6.4°C 84% 3.6 mph WSW5.8 kmh WSW 8.0 mph12.9 kmh 30.03 in1016.9 mb 0.00 in0.0 mm 0.00 in0.0 mm 0.00 in0.0 mm
05:01 AM 48.2°F9.0°C 43.3°F6.3°C 83% 2.8 mph WSW4.5 kmh WSW 8.0 mph12.9 kmh 30.04 in1017.3 mb 0.00 in0.0 mm 0.00 in0.0 mm 0.00 in0.0 mm
05:06 AM 48.2°F9.0°C 43.3°F6.3°C 83% 2.8 mph WSW4.5 kmh WSW 8.0 mph12.9 kmh 30.04 in1017.3 mb 0.00 in0.0 mm 0.00 in0.0 mm 0.00 in0.0 mm
05:11 AM 48.0°F8.9°C 43.1°F6.2°C 83% 2.7 mph WSW4.3 kmh WSW 8.0 mph12.9 kmh 30.04 in1017.3 mb 0.00 in0.0 mm 0.00 in0.0 mm 0.00 in0.0 mm
05:16 AM 48.0°F8.9°C 42.8°F6.0°C 82% 3.5 mph WSW5.6 kmh WSW 8.0 mph12.9 kmh 30.04 in1017.3 mb 0.00 in0.0 mm 0.00 in0.0 mm 0.00 in0.0 mm
05:21 AM 47.9°F8.8°C 42.7°F5.9°C 82% 2.4 mph WSW3.9 kmh WSW 8.0 mph12.9 kmh 30.04 in1017.3 mb 0.00 in0.0 mm 0.00 in0.0 mm 0.00 in0.0 mm
05:26 AM 47.8°F8.8°C 42.6°F5.9°C 82% 2.6 mph WSW4.2 kmh WSW 8.0 mph12.9 kmh 30.04 in1017.3 mb 0.00 in0.0 mm 0.00 in0.0 mm 0.00 in0.0 mm
05:31 AM 47.9°F8.8°C 42.7°F5.9°C 82% 3.1 mph W5.0 kmh W 8.0 mph12.9 kmh 30.05 in1017.6 mb 0.00 in0.0 mm 0.00 in0.0 mm 0.00 in0.0 mm
05:36 AM 47.8°F8.8°C 42.3°F5.7°C 81% 3.1 mph WSW5.0 kmh WSW 9.0 mph14.5 kmh 30.05 in1017.6 mb 0.00 in0.0 mm 0.00 in0.0 mm 0.00 in0.0 mm
05:41 AM 47.6°F8.7°C 42.4°F5.8°C 82% 2.5 mph W4.0 kmh W 9.0 mph14.5 kmh 30.05 in1017.6 mb 0.00 in0.0 mm 0.00 in0.0 mm 0.00 in0.0 mm
05:46 AM 47.6°F8.7°C 42.1°F5.6°C 81% 2.1 mph WSW3.4 kmh WSW 9.0 mph14.5 kmh 30.05 in1017.6 mb 0.00 in0.0 mm 0.00 in0.0 mm 0.00 in0.0 mm
05:51 AM 47.5°F8.6°C 42.0°F5.6°C 81% 2.4 mph WSW3.9 kmh WSW 9.0 mph14.5 kmh 30.05 in1017.6 mb 0.00 in0.0 mm 0.00 in0.0 mm 0.00 in0.0 mm
05:56 AM 47.3°F8.5°C 42.1°F5.6°C 82% 1.8 mph WSW2.9 kmh WSW 8.0 mph12.9 kmh 30.06 in1017.9 mb 0.00 in0.0 mm 0.00 in0.0 mm 0.00 in0.0 mm
06:01 AM 47.2°F8.4°C 41.7°F5.4°C 81% 2.6 mph W4.2 kmh W 8.0 mph12.9 kmh 30.06 in1017.9 mb 0.00 in0.0 mm 0.00 in0.0 mm 0.00 in0.0 mm
06:06 AM 47.2°F8.4°C 41.7°F5.4°C 81% 3.7 mph W6.0 kmh W 7.0 mph11.3 kmh 30.06 in1017.9 mb 0.00 in0.0 mm 0.00 in0.0 mm 0.00 in0.0 mm
06:11 AM 47.4°F8.6°C 41.6°F5.3°C 80% 2.8 mph W4.5 kmh W 7.0 mph11.3 kmh 30.06 in1017.9 mb 0.00 in0.0 mm 0.00 in0.0 mm 0.00 in0.0 mm
06:16 AM 47.5°F8.6°C 41.7°F5.4°C 80% 2.0 mph W3.2 kmh W 7.0 mph11.3 kmh 30.06 in1017.9 mb 0.00 in0.0 mm 0.00 in0.0 mm 0.00 in0.0 mm
06:21 AM 47.7°F8.7°C 41.5°F5.3°C 79% 1.9 mph W3.1 kmh W 7.0 mph11.3 kmh 30.07 in1018.3 mb 0.00 in0.0 mm 0.00 in0.0 mm 0.00 in0.0 mm
06:26 AM 48.0°F8.9°C 41.5°F5.3°C 78% 2.8 mph W4.5 kmh W 7.0 mph11.3 kmh 30.07 in1018.3 mb 0.00 in0.0 mm 0.00 in0.0 mm 0.00 in0.0 mm
06:31 AM 48.2°F9.0°C 41.4°F5.2°C 77% 1.8 mph WSW2.9 kmh WSW 7.0 mph11.3 kmh 30.07 in1018.3 mb 0.00 in0.0 mm 0.00 in0.0 mm 0.00 in0.0 mm
06:36 AM 48.6°F9.2°C 41.4°F5.2°C 76% 1.9 mph WSW3.1 kmh WSW 5.0 mph8.0 kmh 30.07 in1018.3 mb 0.00 in0.0 mm 0.00 in0.0 mm 0.00 in0.0 mm
06:40 AM 48.9°F9.4°C 41.7°F5.4°C 76% 2.2 mph W3.5 kmh W 6.0 mph9.7 kmh 30.07 in1018.3 mb 0.00 in0.0 mm 0.00 in0.0 mm 0.00 in0.0 mm
06:45 AM 49.2°F9.6°C 41.7°F5.4°C 75% 2.4 mph W3.9 kmh W 6.0 mph9.7 kmh 30.07 in1018.3 mb 0.00 in0.0 mm 0.00 in0.0 mm 0.00 in0.0 mm
06:50 AM 49.4°F9.7°C 41.9°F5.5°C 75% 1.7 mph W2.7 kmh W 6.0 mph9.7 kmh 30.08 in1018.6 mb 0.00 in0.0 mm 0.00 in0.0 mm 0.00 in0.0 mm
06:55 AM 49.5°F9.7°C 42.0°F5.6°C 75% 1.8 mph WSW2.9 kmh WSW 6.0 mph9.7 kmh 30.08 in1018.6 mb 0.00 in0.0 mm 0.00 in0.0 mm 0.00 in0.0 mm
07:00 AM 49.8°F9.9°C 41.9°F5.5°C 74% 2.1 mph WNW3.4 kmh WNW 6.0 mph9.7 kmh 30.08 in1018.6 mb 0.00 in0.0 mm 0.00 in0.0 mm 0.00 in0.0 mm
07:05 AM 50.2°F10.1°C 42.0°F5.6°C 73% 2.3 mph WNW3.7 kmh WNW 6.0 mph9.7 kmh 30.08 in1018.6 mb 0.00 in0.0 mm 0.00 in0.0 mm 0.00 in0.0 mm
07:10 AM 50.4°F10.2°C 42.2°F5.7°C 73% 2.9 mph WNW4.7 kmh WNW 7.0 mph11.3 kmh 30.09 in1019.0 mb 0.00 in0.0 mm 0.00 in0.0 mm 0.00 in0.0 mm
07:15 AM 50.6°F10.3°C 42.3°F5.7°C 73% 2.5 mph W4.0 kmh W 7.0 mph11.3 kmh 30.09 in1019.0 mb 0.00 in0.0 mm 0.00 in0.0 mm 0.00 in0.0 mm
07:20 AM 50.9°F10.5°C 42.3°F5.7°C 72% 2.6 mph W4.2 kmh W 7.0 mph11.3 kmh 30.09 in1019.0 mb 0.00 in0.0 mm 0.00 in0.0 mm 0.00 in0.0 mm
07:25 AM 51.1°F10.6°C 42.1°F5.6°C 71% 2.7 mph WNW4.3 kmh WNW 8.0 mph12.9 kmh 30.09 in1019.0 mb 0.00 in0.0 mm 0.00 in0.0 mm 0.00 in0.0 mm
07:30 AM 51.4°F10.8°C 42.4°F5.8°C 71% 3.6 mph W5.8 kmh W 8.0 mph12.9 kmh 30.09 in1019.0 mb 0.00 in0.0 mm 0.00 in0.0 mm 0.00 in0.0 mm
07:35 AM 51.6°F10.9°C 42.6°F5.9°C 71% 3.7 mph WNW6.0 kmh WNW 8.0 mph12.9 kmh 30.09 in1019.0 mb 0.00 in0.0 mm 0.00 in0.0 mm 0.00 in0.0 mm
07:40 AM 52.0°F11.1°C 42.6°F5.9°C 70% 3.5 mph WNW5.6 kmh WNW 8.0 mph12.9 kmh 30.09 in1019.0 mb 0.00 in0.0 mm 0.00 in0.0 mm 0.00 in0.0 mm
07:45 AM 52.4°F11.3°C 43.0°F6.1°C 70% 3.0 mph WNW4.8 kmh WNW 8.0 mph12.9 kmh 30.09 in1019.0 mb 0.00 in0.0 mm 0.00 in0.0 mm 0.00 in0.0 mm
07:50 AM 52.8°F11.6°C 42.6°F5.9°C 68% 1.0 mph WNW1.6 kmh WNW 9.0 mph14.5 kmh 30.09 in1019.0 mb 0.00 in0.0 mm 0.00 in0.0 mm 0.00 in0.0 mm
07:55 AM 53.4°F11.9°C 42.4°F5.8°C 66% 2.7 mph NW4.3 kmh NW 9.0 mph14.5 kmh 30.10 in1019.3 mb 0.00 in0.0 mm 0.00 in0.0 mm 0.00 in0.0 mm
08:00 AM 53.8°F12.1°C 41.5°F5.3°C 63% 5.7 mph WNW9.2 kmh WNW 16.0 mph25.7 kmh 30.10 in1019.3 mb 0.00 in0.0 mm 0.00 in0.0 mm 0.00 in0.0 mm
08:05 AM 54.0°F12.2°C 41.4°F5.2°C 62% 4.2 mph NW6.8 kmh NW 16.0 mph25.7 kmh 30.10 in1019.3 mb 0.00 in0.0 mm 0.00 in0.0 mm 0.00 in0.0 mm
08:10 AM 54.4°F12.4°C 42.2°F5.7°C 63% 3.7 mph WNW6.0 kmh WNW 16.0 mph25.7 kmh 30.10 in1019.3 mb 0.00 in0.0 mm 0.00 in0.0 mm 0.00 in0.0 mm
08:15 AM 54.7°F12.6°C 42.9°F6.1°C 64% 1.6 mph W2.6 kmh W 16.0 mph25.7 kmh 30.10 in1019.3 mb 0.00 in0.0 mm 0.00 in0.0 mm 0.00 in0.0 mm
08:20 AM 55.2°F12.9°C 42.9°F6.1°C 63% 1.6 mph WNW2.6 kmh WNW 11.0 mph17.7 kmh 30.10 in1019.3 mb 0.00 in0.0 mm 0.00 in0.0 mm 0.00 in0.0 mm
08:25 AM 55.6°F13.1°C 43.3°F6.3°C 63% 1.9 mph WNW3.1 kmh WNW 10.0 mph16.1 kmh 30.11 in1019.6 mb 0.00 in0.0 mm 0.00 in0.0 mm 0.00 in0.0 mm
08:30 AM 55.7°F13.2°C 42.1°F5.6°C 60% 5.2 mph W8.4 kmh W 12.0 mph19.3 kmh 30.11 in1019.6 mb 0.00 in0.0 mm 0.00 in0.0 mm 0.00 in0.0 mm
08:35 AM 56.1°F13.4°C 43.0°F6.1°C 61% 2.6 mph WNW4.2 kmh WNW 12.0 mph19.3 kmh 30.11 in1019.6 mb 0.00 in0.0 mm 0.00 in0.0 mm 0.00 in0.0 mm
08:40 AM 56.5°F13.6°C 42.4°F5.8°C 59% 2.8 mph WNW4.5 kmh WNW 12.0 mph19.3 kmh 30.11 in1019.6 mb 0.00 in0.0 mm 0.00 in0.0 mm 0.00 in0.0 mm
08:45 AM 56.9°F13.8°C 42.8°F6.0°C 59% 2.3 mph WNW3.7 kmh WNW 8.0 mph12.9 kmh 30.11 in1019.6 mb 0.00 in0.0 mm 0.00 in0.0 mm 0.00 in0.0 mm
08:50 AM 56.9°F13.8°C 41.8°F5.4°C 57% 5.0 mph W8.0 kmh W 11.0 mph17.7 kmh 30.11 in1019.6 mb 0.00 in0.0 mm 0.00 in0.0 mm 0.00 in0.0 mm
08:55 AM 56.9°F13.8°C 42.3°F5.7°C 58% 4.3 mph WNW6.9 kmh WNW 12.0 mph19.3 kmh 30.11 in1019.6 mb 0.00 in0.0 mm 0.00 in0.0 mm 0.00 in0.0 mm
09:00 AM 57.3°F14.1°C 43.5°F6.4°C 60% 3.6 mph NW5.8 kmh NW 12.0 mph19.3 kmh 30.12 in1020.0 mb 0.00 in0.0 mm 0.00 in0.0 mm 0.00 in0.0 mm
09:05 AM 57.5°F14.2°C 42.9°F6.1°C 58% 5.2 mph W8.4 kmh W 12.0 mph19.3 kmh 30.12 in1020.0 mb 0.00 in0.0 mm 0.00 in0.0 mm 0.00 in0.0 mm
09:10 AM 57.9°F14.4°C 44.2°F6.8°C 60% 3.9 mph WNW6.3 kmh WNW 12.0 mph19.3 kmh 30.12 in1020.0 mb 0.00 in0.0 mm 0.00 in0.0 mm 0.00 in0.0 mm
09:15 AM 58.7°F14.8°C 45.0°F7.2°C 60% 3.5 mph NW5.6 kmh NW 10.0 mph16.1 kmh 30.12 in1020.0 mb 0.00 in0.0 mm 0.00 in0.0 mm 0.00 in0.0 mm
09:20 AM 59.2°F15.1°C 44.1°F6.7°C 57% 3.2 mph WNW5.1 kmh WNW 11.0 mph17.7 kmh 30.12 in1020.0 mb 0.00 in0.0 mm 0.00 in0.0 mm 0.00 in0.0 mm
09:25 AM 59.8°F15.4°C 42.1°F5.6°C 52% 5.2 mph WNW8.4 kmh WNW 13.0 mph20.9 kmh 30.12 in1020.0 mb 0.00 in0.0 mm 0.00 in0.0 mm 0.00 in0.0 mm
09:30 AM 60.3°F15.7°C 41.0°F5.0°C 49% 4.4 mph NW7.1 kmh NW 15.0 mph24.1 kmh 30.12 in1020.0 mb 0.00 in0.0 mm 0.00 in0.0 mm 0.00 in0.0 mm
09:35 AM 60.8°F16.0°C 40.4°F4.7°C 47% 6.0 mph NW9.7 kmh NW 15.0 mph24.1 kmh 30.12 in1020.0 mb 0.00 in0.0 mm 0.00 in0.0 mm 0.00 in0.0 mm
09:40 AM 61.1°F16.2°C 40.1°F4.5°C 46% 3.7 mph NW6.0 kmh NW 15.0 mph24.1 kmh 30.12 in1020.0 mb 0.00 in0.0 mm 0.00 in0.0 mm 0.00 in0.0 mm
09:45 AM 61.6°F16.4°C 40.6°F4.8°C 46% 2.4 mph NW3.9 kmh NW 14.0 mph22.5 kmh 30.12 in1020.0 mb 0.00 in0.0 mm 0.00 in0.0 mm 0.00 in0.0 mm
09:50 AM 62.0°F16.7°C 40.9°F4.9°C 46% 3.9 mph WNW6.3 kmh WNW 14.0 mph22.5 kmh 30.12 in1020.0 mb 0.00 in0.0 mm 0.00 in0.0 mm 0.00 in0.0 mm
09:55 AM 62.1°F16.7°C 39.8°F4.3°C 44% 4.7 mph NW7.6 kmh NW 13.0 mph20.9 kmh 30.13 in1020.3 mb 0.00 in0.0 mm 0.00 in0.0 mm 0.00 in0.0 mm
10:00 AM 62.0°F16.7°C 38.5°F3.6°C 42% 5.9 mph W9.5 kmh W 14.0 mph22.5 kmh 30.13 in1020.3 mb 0.00 in0.0 mm 0.00 in0.0 mm 0.00 in0.0 mm
10:05 AM 62.5°F16.9°C 38.3°F3.5°C 41% 4.2 mph NW6.8 kmh NW 14.0 mph22.5 kmh 30.12 in1020.0 mb 0.00 in0.0 mm 0.00 in0.0 mm 0.00 in0.0 mm
10:10 AM 63.1°F17.3°C 36.2°F2.3°C 37% 5.6 mph NW9.0 kmh NW 14.0 mph22.5 kmh 30.13 in1020.3 mb 0.00 in0.0 mm 0.00 in0.0 mm 0.00 in0.0 mm
10:15 AM 62.9°F17.2°C 36.0°F2.2°C 37% 5.5 mph NW8.9 kmh NW 14.0 mph22.5 kmh 30.13 in1020.3 mb 0.00 in0.0 mm 0.00 in0.0 mm 0.00 in0.0 mm
10:20 AM 63.3°F17.4°C 34.2°F1.2°C 34% 5.1 mph NW8.2 kmh NW 13.0 mph20.9 kmh 30.13 in1020.3 mb 0.00 in0.0 mm 0.00 in0.0 mm 0.00 in0.0 mm
10:25 AM 63.5°F17.5°C 36.0°F2.2°C 36% 4.3 mph NW6.9 kmh NW 13.0 mph20.9 kmh 30.13 in1020.3 mb 0.00 in0.0 mm 0.00 in0.0 mm 0.00 in0.0 mm
10:30 AM 63.9°F17.7°C 35.5°F1.9°C 35% 4.6 mph WNW7.4 kmh WNW 13.0 mph20.9 kmh 30.13 in1020.3 mb 0.00 in0.0 mm 0.00 in0.0 mm 0.00 in0.0 mm
10:35 AM 63.9°F17.7°C 34.0°F1.1°C 33% 6.9 mph WNW11.1 kmh WNW 16.0 mph25.7 kmh 30.13 in1020.3 mb 0.00 in0.0 mm 0.00 in0.0 mm 0.00 in0.0 mm
10:40 AM 64.2°F17.9°C 34.3°F1.3°C 33% 5.2 mph NW8.4 kmh NW 16.0 mph25.7 kmh 30.13 in1020.3 mb 0.00 in0.0 mm 0.00 in0.0 mm 0.00 in0.0 mm
10:45 AM 64.4°F18.0°C 35.2°F1.8°C 34% 4.1 mph WNW6.6 kmh WNW 16.0 mph25.7 kmh 30.13 in1020.3 mb 0.00 in0.0 mm 0.00 in0.0 mm 0.00 in0.0 mm
10:50 AM 64.4°F18.0°C 32.1°F0.1°C 30% 5.0 mph WNW8.0 kmh WNW 17.0 mph27.4 kmh 30.13 in1020.3 mb 0.00 in0.0 mm 0.00 in0.0 mm 0.00 in0.0 mm
10:55 AM 64.5°F18.1°C 32.4°F0.2°C 30% 4.5 mph NW7.2 kmh NW 17.0 mph27.4 kmh 30.13 in1020.3 mb 0.00 in0.0 mm 0.00 in0.0 mm 0.00 in0.0 mm
11:00 AM 64.9°F18.3°C 33.3°F0.7°C 31% 3.3 mph NNW5.3 kmh NNW 17.0 mph27.4 kmh 30.13 in1020.3 mb 0.00 in0.0 mm 0.00 in0.0 mm 0.00 in0.0 mm
11:05 AM 65.2°F18.4°C 31.9°F-0.1°C 29% 6.2 mph WNW10.0 kmh WNW 17.0 mph27.4 kmh 30.13 in1020.3 mb 0.00 in0.0 mm 0.00 in0.0 mm 0.00 in0.0 mm
11:10 AM 65.2°F18.4°C 31.9°F-0.1°C 29% 5.9 mph WNW9.5 kmh WNW 13.0 mph20.9 kmh 30.13 in1020.3 mb 0.00 in0.0 mm 0.00 in0.0 mm 0.00 in0.0 mm
11:15 AM 65.1°F18.4°C 32.7°F0.4°C 30% 6.5 mph WNW10.5 kmh WNW 19.0 mph30.6 kmh 30.13 in1020.3 mb 0.00 in0.0 mm 0.00 in0.0 mm 0.00 in0.0 mm
11:20 AM 65.3°F18.5°C 32.0°F0.0°C 29% 5.6 mph NW9.0 kmh NW 19.0 mph30.6 kmh 30.13 in1020.3 mb 0.00 in0.0 mm 0.00 in0.0 mm 0.00 in0.0 mm
11:25 AM 65.4°F18.6°C 33.0°F0.6°C 30% 3.7 mph NW6.0 kmh NW 19.0 mph30.6 kmh 30.13 in1020.3 mb 0.00 in0.0 mm 0.00 in0.0 mm 0.00 in0.0 mm
11:30 AM 65.8°F18.8°C 35.1°F1.7°C 32% 2.3 mph NW3.7 kmh NW 19.0 mph30.6 kmh 30.13 in1020.3 mb 0.00 in0.0 mm 0.00 in0.0 mm 0.00 in0.0 mm
11:35 AM 65.8°F18.8°C 34.3°F1.3°C 31% 6.3 mph WNW10.1 kmh WNW 17.0 mph27.4 kmh 30.13 in1020.3 mb 0.00 in0.0 mm 0.00 in0.0 mm 0.00 in0.0 mm
11:39 AM 65.6°F18.7°C 33.3°F0.7°C 30% 5.7 mph NW9.2 kmh NW 17.0 mph27.4 kmh 30.13 in1020.3 mb 0.00 in0.0 mm 0.00 in0.0 mm 0.00 in0.0 mm
11:44 AM 66.1°F18.9°C 34.4°F1.3°C 31% 4.2 mph NW6.8 kmh NW 17.0 mph27.4 kmh 30.13 in1020.3 mb 0.00 in0.0 mm 0.00 in0.0 mm 0.00 in0.0 mm
11:49 AM 66.0°F18.9°C 35.9°F2.2°C 33% 5.2 mph NW8.4 kmh NW 17.0 mph27.4 kmh 30.13 in1020.3 mb 0.00 in0.0 mm 0.00 in0.0 mm 0.00 in0.0 mm
11:54 AM 66.2°F19.0°C 32.8°F0.4°C 29% 6.0 mph NW9.7 kmh NW 14.0 mph22.5 kmh 30.13 in1020.3 mb 0.00 in0.0 mm 0.00 in0.0 mm 0.00 in0.0 mm
11:59 AM 66.5°F19.2°C 33.9°F1.1°C 30% 4.5 mph NW7.2 kmh NW 14.0 mph22.5 kmh 30.13 in1020.3 mb 0.00 in0.0 mm 0.00 in0.0 mm 0.00 in0.0 mm
12:04 PM 67.2°F19.6°C 36.1°F2.3°C 32% 3.5 mph NNW5.6 kmh NNW 14.0 mph22.5 kmh 30.13 in1020.3 mb 0.00 in0.0 mm 0.00 in0.0 mm 0.00 in0.0 mm
12:09 PM 67.2°F19.6°C 36.3°F2.4°C 32% 5.4 mph NW8.7 kmh NW 13.0 mph20.9 kmh 30.13 in1020.3 mb 0.00 in0.0 mm 0.00 in0.0 mm 0.00 in0.0 mm
12:14 PM 66.9°F19.4°C 34.3°F1.3°C 30% 5.3 mph NW8.5 kmh NW 15.0 mph24.1 kmh 30.13 in1020.3 mb 0.00 in0.0 mm 0.00 in0.0 mm 0.00 in0.0 mm
12:19 PM 66.9°F19.4°C 34.3°F1.3°C 30% 6.6 mph WNW10.6 kmh WNW 15.0 mph24.1 kmh 30.12 in1020.0 mb 0.00 in0.0 mm 0.00 in0.0 mm 0.00 in0.0 mm
12:24 PM 66.8°F19.3°C 35.0°F1.7°C 31% 5.5 mph NW8.9 kmh NW 19.0 mph30.6 kmh 30.12 in1020.0 mb 0.00 in0.0 mm 0.00 in0.0 mm 0.00 in0.0 mm
12:29 PM 66.9°F19.4°C 34.3°F1.3°C 30% 5.1 mph N8.2 kmh N 19.0 mph30.6 kmh 30.12 in1020.0 mb 0.00 in0.0 mm 0.00 in0.0 mm 0.00 in0.0 mm
12:34 PM 67.0°F19.4°C 35.2°F1.8°C 31% 3.1 mph NW5.0 kmh NW 19.0 mph30.6 kmh 30.12 in1020.0 mb 0.00 in0.0 mm 0.00 in0.0 mm 0.00 in0.0 mm
12:39 PM 67.8°F19.9°C 35.9°F2.2°C 31% 4.9 mph NW7.9 kmh NW 19.0 mph30.6 kmh 30.12 in1020.0 mb 0.00 in0.0 mm 0.00 in0.0 mm 0.00 in0.0 mm
12:44 PM 67.9°F19.9°C 36.1°F2.3°C 31% 4.4 mph NW7.1 kmh NW 13.0 mph20.9 kmh 30.12 in1020.0 mb 0.00 in0.0 mm 0.00 in0.0 mm 0.00 in0.0 mm
12:49 PM 67.8°F19.9°C 35.9°F2.2°C 31% 5.3 mph WNW8.5 kmh WNW 11.0 mph17.7 kmh 30.12 in1020.0 mb 0.00 in0.0 mm 0.00 in0.0 mm 0.00 in0.0 mm
12:54 PM 68.0°F20.0°C 35.2°F1.8°C 30% 5.6 mph NNW9.0 kmh NNW 12.0 mph19.3 kmh 30.11 in1019.6 mb 0.00 in0.0 mm 0.00 in0.0 mm 0.00 in0.0 mm
12:59 PM 68.3°F20.2°C 33.8°F1.0°C 28% 7.3 mph WNW11.7 kmh WNW 15.0 mph24.1 kmh 30.12 in1020.0 mb 0.00 in0.0 mm 0.00 in0.0 mm 0.00 in0.0 mm
01:04 PM 68.1°F20.1°C 33.7°F0.9°C 28% 6.0 mph NW9.7 kmh NW 15.0 mph24.1 kmh 30.12 in1020.0 mb 0.00 in0.0 mm 0.00 in0.0 mm 0.00 in0.0 mm
01:09 PM 68.1°F20.1°C 35.3°F1.8°C 30% 4.1 mph NW6.6 kmh NW 15.0 mph24.1 kmh 30.11 in1019.6 mb 0.00 in0.0 mm 0.00 in0.0 mm 0.00 in0.0 mm
01:14 PM 68.2°F20.1°C 37.0°F2.8°C 32% 4.0 mph NW6.4 kmh NW 15.0 mph24.1 kmh 30.11 in1019.6 mb 0.00 in0.0 mm 0.00 in0.0 mm 0.00 in0.0 mm
01:19 PM 68.6°F20.3°C 36.6°F2.6°C 31% 2.3 mph N3.7 kmh N 15.0 mph24.1 kmh 30.11 in1019.6 mb 0.00 in0.0 mm 0.00 in0.0 mm 0.00 in0.0 mm
01:24 PM 69.0°F20.6°C 35.2°F1.8°C 29% 7.2 mph NW11.6 kmh NW 17.0 mph27.4 kmh 30.11 in1019.6 mb 0.00 in0.0 mm 0.00 in0.0 mm 0.00 in0.0 mm
01:29 PM 68.7°F20.4°C 35.0°F1.7°C 29% 5.5 mph NNW8.9 kmh NNW 17.0 mph27.4 kmh 30.11 in1019.6 mb 0.00 in0.0 mm 0.00 in0.0 mm 0.00 in0.0 mm
01:34 PM 69.2°F20.7°C 36.3°F2.4°C 30% 2.1 mph NNW3.4 kmh NNW 17.0 mph27.4 kmh 30.11 in1019.6 mb 0.00 in0.0 mm 0.00 in0.0 mm 0.00 in0.0 mm
01:39 PM 69.8°F21.0°C 35.2°F1.8°C 28% 5.2 mph WNW8.4 kmh WNW 17.0 mph27.4 kmh 30.11 in1019.6 mb 0.00 in0.0 mm 0.00 in0.0 mm 0.00 in0.0 mm
01:44 PM 69.8°F21.0°C 37.8°F3.2°C 31% 3.7 mph NW6.0 kmh NW 13.0 mph20.9 kmh 30.10 in1019.3 mb 0.00 in0.0 mm 0.00 in0.0 mm 0.00 in0.0 mm
01:49 PM 69.4°F20.8°C 37.4°F3.0°C 31% 3.9 mph NW6.3 kmh NW 18.0 mph29.0 kmh 30.11 in1019.6 mb 0.00 in0.0 mm 0.00 in0.0 mm 0.00 in0.0 mm
01:54 PM 69.3°F20.7°C 35.5°F1.9°C 29% 7.6 mph WNW12.2 kmh WNW 18.0 mph29.0 kmh 30.10 in1019.3 mb 0.00 in0.0 mm 0.00 in0.0 mm 0.00 in0.0 mm
01:59 PM 69.4°F20.8°C 36.4°F2.4°C 30% 5.5 mph WNW8.9 kmh WNW 18.0 mph29.0 kmh 30.10 in1019.3 mb 0.00 in0.0 mm 0.00 in0.0 mm 0.00 in0.0 mm
02:04 PM 69.4°F20.8°C 32.9°F0.5°C 26% 10.2 mph NW16.4 kmh NW 18.0 mph29.0 kmh 30.10 in1019.3 mb 0.00 in0.0 mm 0.00 in0.0 mm 0.00 in0.0 mm
02:09 PM 69.5°F20.8°C 33.1°F0.6°C 26% 7.0 mph NNW11.3 kmh NNW 17.0 mph27.4 kmh 30.10 in1019.3 mb 0.00 in0.0 mm 0.00 in0.0 mm 0.00 in0.0 mm
02:14 PM 69.7°F20.9°C 34.2°F1.2°C 27% 4.4 mph N7.1 kmh N 17.0 mph27.4 kmh 30.10 in1019.3 mb 0.00 in0.0 mm 0.00 in0.0 mm 0.00 in0.0 mm
02:19 PM 70.3°F21.3°C 35.6°F2.0°C 28% 3.0 mph N4.8 kmh N 17.0 mph27.4 kmh 30.10 in1019.3 mb 0.00 in0.0 mm 0.00 in0.0 mm 0.00 in0.0 mm
02:24 PM 70.7°F21.5°C 34.1°F1.2°C 26% 3.3 mph NW5.3 kmh NW 14.0 mph22.5 kmh 30.10 in1019.3 mb 0.00 in0.0 mm 0.00 in0.0 mm 0.00 in0.0 mm
02:29 PM 70.5°F21.4°C 33.9°F1.1°C 26% 6.5 mph WNW10.5 kmh WNW 17.0 mph27.4 kmh 30.10 in1019.3 mb 0.00 in0.0 mm 0.00 in0.0 mm 0.00 in0.0 mm
02:34 PM 70.6°F21.4°C 36.8°F2.7°C 29% 3.0 mph NW4.8 kmh NW 17.0 mph27.4 kmh 30.09 in1019.0 mb 0.00 in0.0 mm 0.00 in0.0 mm 0.00 in0.0 mm
02:39 PM 71.0°F21.7°C 33.4°F0.8°C 25% 5.2 mph NW8.4 kmh NW 17.0 mph27.4 kmh 30.10 in1019.3 mb 0.00 in0.0 mm 0.00 in0.0 mm 0.00 in0.0 mm
02:44 PM 70.6°F21.4°C 34.0°F1.1°C 26% 4.8 mph NW7.7 kmh NW 17.0 mph27.4 kmh 30.09 in1019.0 mb 0.00 in0.0 mm 0.00 in0.0 mm 0.00 in0.0 mm
02:49 PM 70.8°F21.6°C 35.0°F1.7°C 27% 7.4 mph W11.9 kmh W 14.0 mph22.5 kmh 30.09 in1019.0 mb 0.00 in0.0 mm 0.00 in0.0 mm 0.00 in0.0 mm
02:54 PM 70.5°F21.4°C 33.8°F1.0°C 26% 5.6 mph WNW9.0 kmh WNW 14.0 mph22.5 kmh 30.09 in1019.0 mb 0.00 in0.0 mm 0.00 in0.0 mm 0.00 in0.0 mm
02:59 PM 70.3°F21.3°C 34.6°F1.4°C 27% 7.3 mph WNW11.7 kmh WNW 14.0 mph22.5 kmh 30.09 in1019.0 mb 0.00 in0.0 mm 0.00 in0.0 mm 0.00 in0.0 mm
03:04 PM 70.3°F21.3°C 34.6°F1.4°C 27% 6.1 mph NW9.8 kmh NW 15.0 mph24.1 kmh 30.09 in1019.0 mb 0.00 in0.0 mm 0.00 in0.0 mm 0.00 in0.0 mm
03:09 PM 70.7°F21.5°C 33.0°F0.6°C 25% 8.2 mph WNW13.2 kmh WNW 17.0 mph27.4 kmh 30.09 in1019.0 mb 0.00 in0.0 mm 0.00 in0.0 mm 0.00 in0.0 mm
03:14 PM 70.8°F21.6°C 34.1°F1.2°C 26% 5.3 mph NW8.5 kmh NW 18.0 mph29.0 kmh 30.09 in1019.0 mb 0.00 in0.0 mm 0.00 in0.0 mm 0.00 in0.0 mm
03:19 PM 70.9°F21.6°C 32.2°F0.1°C 24% 5.2 mph NW8.4 kmh NW 18.0 mph29.0 kmh 30.09 in1019.0 mb 0.00 in0.0 mm 0.00 in0.0 mm 0.00 in0.0 mm
03:24 PM 71.0°F21.7°C 32.3°F0.2°C 24% 5.7 mph NW9.2 kmh NW 18.0 mph29.0 kmh 30.08 in1018.6 mb 0.00 in0.0 mm 0.00 in0.0 mm 0.00 in0.0 mm
03:29 PM 71.4°F21.9°C 33.6°F0.9°C 25% 3.0 mph NW4.8 kmh NW 19.0 mph30.6 kmh 30.09 in1019.0 mb 0.00 in0.0 mm 0.00 in0.0 mm 0.00 in0.0 mm
03:34 PM 71.6°F22.0°C 32.8°F0.4°C 24% 4.8 mph WNW7.7 kmh WNW 19.0 mph30.6 kmh 30.08 in1018.6 mb 0.00 in0.0 mm 0.00 in0.0 mm 0.00 in0.0 mm
03:39 PM 71.9°F22.2°C 32.0°F0.0°C 23% 6.8 mph W10.9 kmh W 19.0 mph30.6 kmh 30.09 in1019.0 mb 0.00 in0.0 mm 0.00 in0.0 mm 0.00 in0.0 mm
03:44 PM 71.8°F22.1°C 32.9°F0.5°C 24% 5.8 mph NW9.3 kmh NW 14.0 mph22.5 kmh 30.09 in1019.0 mb 0.00 in0.0 mm 0.00 in0.0 mm 0.00 in0.0 mm
03:49 PM 71.6°F22.0°C 32.8°F0.4°C 24% 3.8 mph N6.1 kmh N 13.0 mph20.9 kmh 30.08 in1018.6 mb 0.00 in0.0 mm 0.00 in0.0 mm 0.00 in0.0 mm
03:54 PM 71.7°F22.1°C 33.9°F1.1°C 25% 4.5 mph NW7.2 kmh NW 12.0 mph19.3 kmh 30.08 in1018.6 mb 0.00 in0.0 mm 0.00 in0.0 mm 0.00 in0.0 mm
03:59 PM 71.8°F22.1°C 34.0°F1.1°C 25% 6.6 mph NW10.6 kmh NW 13.0 mph20.9 kmh 30.08 in1018.6 mb 0.00 in0.0 mm 0.00 in0.0 mm 0.00 in0.0 mm
04:04 PM 72.0°F22.2°C 34.1°F1.2°C 25% 5.1 mph NW8.2 kmh NW 13.0 mph20.9 kmh 30.08 in1018.6 mb 0.00 in0.0 mm 0.00 in0.0 mm 0.00 in0.0 mm
04:09 PM 72.0°F22.2°C 34.1°F1.2°C 25% 5.0 mph NW8.0 kmh NW 13.0 mph20.9 kmh 30.08 in1018.6 mb 0.00 in0.0 mm 0.00 in0.0 mm 0.00 in0.0 mm
04:14 PM 71.9°F22.2°C 32.0°F0.0°C 23% 7.2 mph NW11.6 kmh NW 14.0 mph22.5 kmh 30.08 in1018.6 mb 0.00 in0.0 mm 0.00 in0.0 mm 0.00 in0.0 mm
04:19 PM 71.9°F22.2°C 34.0°F1.1°C 25% 3.6 mph NW5.8 kmh NW 14.0 mph22.5 kmh 30.08 in1018.6 mb 0.00 in0.0 mm 0.00 in0.0 mm 0.00 in0.0 mm
04:24 PM 72.3°F22.4°C 35.4°F1.9°C 26% 2.9 mph NNW4.7 kmh NNW 14.0 mph22.5 kmh 30.08 in1018.6 mb 0.00 in0.0 mm 0.00 in0.0 mm 0.00 in0.0 mm
04:29 PM 72.3°F22.4°C 34.4°F1.3°C 25% 4.3 mph NW6.9 kmh NW 13.0 mph20.9 kmh 30.08 in1018.6 mb 0.00 in0.0 mm 0.00 in0.0 mm 0.00 in0.0 mm
04:34 PM 72.3°F22.4°C 34.4°F1.3°C 25% 4.7 mph NW7.6 kmh NW 13.0 mph20.9 kmh 30.08 in1018.6 mb 0.00 in0.0 mm 0.00 in0.0 mm 0.00 in0.0 mm
04:38 PM 72.3°F22.4°C 35.4°F1.9°C 26% 1.8 mph NNE2.9 kmh NNE 10.0 mph16.1 kmh 30.09 in1019.0 mb 0.00 in0.0 mm 0.00 in0.0 mm 0.00 in0.0 mm
04:43 PM 72.4°F22.4°C 34.5°F1.4°C 25% 2.6 mph N4.2 kmh N 11.0 mph17.7 kmh 30.09 in1019.0 mb 0.00 in0.0 mm 0.00 in0.0 mm 0.00 in0.0 mm
04:48 PM 72.4°F22.4°C 35.4°F1.9°C 26% 3.5 mph NW5.6 kmh NW 11.0 mph17.7 kmh 30.09 in1019.0 mb 0.00 in0.0 mm 0.00 in0.0 mm 0.00 in0.0 mm
04:53 PM 72.4°F22.4°C 35.4°F1.9°C 26% 3.3 mph NNW5.3 kmh NNW 12.0 mph19.3 kmh 30.09 in1019.0 mb 0.00 in0.0 mm 0.00 in0.0 mm 0.00 in0.0 mm
04:58 PM 72.6°F22.6°C 36.5°F2.5°C 27% 2.1 mph WNW3.4 kmh WNW 12.0 mph19.3 kmh 30.09 in1019.0 mb 0.00 in0.0 mm 0.00 in0.0 mm 0.00 in0.0 mm
05:03 PM 72.7°F22.6°C 34.8°F1.6°C 25% 6.7 mph NNW10.8 kmh NNW 12.0 mph19.3 kmh 30.09 in1019.0 mb 0.00 in0.0 mm 0.00 in0.0 mm 0.00 in0.0 mm
05:08 PM 72.4°F22.4°C 34.6°F1.4°C 25% 2.9 mph NNW4.7 kmh NNW 12.0 mph19.3 kmh 30.09 in1019.0 mb 0.00 in0.0 mm 0.00 in0.0 mm 0.00 in0.0 mm
05:13 PM 72.4°F22.4°C 35.6°F2.0°C 26% 3.8 mph NW6.1 kmh NW 12.0 mph19.3 kmh 30.09 in1019.0 mb 0.00 in0.0 mm 0.00 in0.0 mm 0.00 in0.0 mm
05:18 PM 72.4°F22.4°C 35.4°F1.9°C 26% 5.0 mph NW8.0 kmh NW 12.0 mph19.3 kmh 30.09 in1019.0 mb 0.00 in0.0 mm 0.00 in0.0 mm 0.00 in0.0 mm
05:23 PM 72.3°F22.4°C 34.4°F1.3°C 25% 4.2 mph NW6.8 kmh NW 11.0 mph17.7 kmh 30.09 in1019.0 mb 0.00 in0.0 mm 0.00 in0.0 mm 0.00 in0.0 mm
05:28 PM 72.4°F22.4°C 36.4°F2.4°C 27% 3.2 mph NW5.1 kmh NW 11.0 mph17.7 kmh 30.09 in1019.0 mb 0.00 in0.0 mm 0.00 in0.0 mm 0.00 in0.0 mm
05:33 PM 72.8°F22.7°C 37.6°F3.1°C 28% 2.2 mph N3.5 kmh N 11.0 mph17.7 kmh 30.09 in1019.0 mb 0.00 in0.0 mm 0.00 in0.0 mm 0.00 in0.0 mm
05:38 PM 72.5°F22.5°C 35.5°F1.9°C 26% 3.7 mph WNW6.0 kmh WNW 11.0 mph17.7 kmh 30.09 in1019.0 mb 0.00 in0.0 mm 0.00 in0.0 mm 0.00 in0.0 mm
05:43 PM 72.2°F22.3°C 35.3°F1.8°C 26% 4.3 mph NW6.9 kmh NW 10.0 mph16.1 kmh 30.09 in1019.0 mb 0.00 in0.0 mm 0.00 in0.0 mm 0.00 in0.0 mm
05:48 PM 72.2°F22.3°C 35.3°F1.8°C 26% 3.4 mph WNW5.5 kmh WNW 9.0 mph14.5 kmh 30.09 in1019.0 mb 0.00 in0.0 mm 0.00 in0.0 mm 0.00 in0.0 mm
05:53 PM 72.1°F22.3°C 35.2°F1.8°C 26% 2.9 mph WNW4.7 kmh WNW 9.0 mph14.5 kmh 30.09 in1019.0 mb 0.00 in0.0 mm 0.00 in0.0 mm 0.00 in0.0 mm
05:58 PM 72.0°F22.2°C 36.0°F2.2°C 27% 2.1 mph N3.4 kmh N 9.0 mph14.5 kmh 30.09 in1019.0 mb 0.00 in0.0 mm 0.00 in0.0 mm 0.00 in0.0 mm
06:03 PM 72.2°F22.3°C 36.2°F2.3°C 27% 1.0 mph N1.6 kmh N 9.0 mph14.5 kmh 30.09 in1019.0 mb 0.00 in0.0 mm 0.00 in0.0 mm 0.00 in0.0 mm
06:08 PM 72.2°F22.3°C 36.2°F2.3°C 27% 1.8 mph WNW2.9 kmh WNW 8.0 mph12.9 kmh 30.09 in1019.0 mb 0.00 in0.0 mm 0.00 in0.0 mm 0.00 in0.0 mm
06:13 PM 72.0°F22.2°C 36.9°F2.7°C 28% 2.1 mph WNW3.4 kmh WNW 8.0 mph12.9 kmh 30.10 in1019.3 mb 0.00 in0.0 mm 0.00 in0.0 mm 0.00 in0.0 mm
06:18 PM 71.8°F22.1°C 35.9°F2.2°C 27% 3.8 mph WNW6.1 kmh WNW 8.0 mph12.9 kmh 30.10 in1019.3 mb 0.00 in0.0 mm 0.00 in0.0 mm 0.00 in0.0 mm
06:23 PM 71.5°F21.9°C 35.6°F2.0°C 27% 4.6 mph WNW7.4 kmh WNW 8.0 mph12.9 kmh 30.10 in1019.3 mb 0.00 in0.0 mm 0.00 in0.0 mm 0.00 in0.0 mm
06:28 PM 71.1°F21.7°C 37.0°F2.8°C 29% 3.1 mph NW5.0 kmh NW 8.0 mph12.9 kmh 30.10 in1019.3 mb 0.00 in0.0 mm 0.00 in0.0 mm 0.00 in0.0 mm
06:33 PM 71.1°F21.7°C 37.0°F2.8°C 29% 2.1 mph NW3.4 kmh NW 8.0 mph12.9 kmh 30.10 in1019.3 mb 0.00 in0.0 mm 0.00 in0.0 mm 0.00 in0.0 mm
06:38 PM 71.2°F21.8°C 37.1°F2.8°C 29% 1.3 mph W2.1 kmh W 8.0 mph12.9 kmh 30.10 in1019.3 mb 0.00 in0.0 mm 0.00 in0.0 mm 0.00 in0.0 mm
06:43 PM 71.2°F21.8°C 36.4°F2.4°C 28% 2.4 mph WNW3.9 kmh WNW 8.0 mph12.9 kmh 30.10 in1019.3 mb 0.00 in0.0 mm 0.00 in0.0 mm 0.00 in0.0 mm
06:48 PM 70.9°F21.6°C 37.7°F3.2°C 30% 2.1 mph W3.4 kmh W 5.0 mph8.0 kmh 30.11 in1019.6 mb 0.00 in0.0 mm 0.00 in0.0 mm 0.00 in0.0 mm
06:53 PM 70.6°F21.4°C 37.5°F3.1°C 30% 1.4 mph W2.3 kmh W 4.0 mph6.4 kmh 30.11 in1019.6 mb 0.00 in0.0 mm 0.00 in0.0 mm 0.00 in0.0 mm
06:58 PM 70.0°F21.1°C 37.8°F3.2°C 31% 1.2 mph W1.9 kmh W 4.0 mph6.4 kmh 30.11 in1019.6 mb 0.00 in0.0 mm 0.00 in0.0 mm 0.00 in0.0 mm
07:03 PM 69.5°F20.8°C 38.2°F3.4°C 32% 1.8 mph W2.9 kmh W 4.0 mph6.4 kmh 30.11 in1019.6 mb 0.00 in0.0 mm 0.00 in0.0 mm 0.00 in0.0 mm
07:08 PM 68.8°F20.4°C 38.3°F3.5°C 33% Calm Calm 3.0 mph4.8 kmh 30.11 in1019.6 mb 0.00 in0.0 mm 0.00 in0.0 mm 0.00 in0.0 mm
07:13 PM 68.2°F20.1°C 37.8°F3.2°C 33% Calm Calm 3.0 mph4.8 kmh 30.11 in1019.6 mb 0.00 in0.0 mm 0.00 in0.0 mm 0.00 in0.0 mm
07:18 PM 67.8°F19.9°C 38.4°F3.6°C 34% 1.0 mph W1.6 kmh W 3.0 mph4.8 kmh 30.11 in1019.6 mb 0.00 in0.0 mm 0.00 in0.0 mm 0.00 in0.0 mm
07:23 PM 67.4°F19.7°C 38.8°F3.8°C 35% 1.0 mph W1.6 kmh W 2.0 mph3.2 kmh 30.11 in1019.6 mb 0.00 in0.0 mm 0.00 in0.0 mm 0.00 in0.0 mm
07:28 PM 67.1°F19.5°C 38.3°F3.5°C 35% 1.1 mph W1.8 kmh W 2.0 mph3.2 kmh 30.11 in1019.6 mb 0.00 in0.0 mm 0.00 in0.0 mm 0.00 in0.0 mm
07:33 PM 66.7°F19.3°C 38.7°F3.7°C 36% 1.0 mph WSW1.6 kmh WSW 2.0 mph3.2 kmh 30.12 in1020.0 mb 0.00 in0.0 mm 0.00 in0.0 mm 0.00 in0.0 mm
07:38 PM 66.3°F19.1°C 39.2°F4.0°C 37% 1.3 mph W2.1 kmh W 2.0 mph3.2 kmh 30.12 in1020.0 mb 0.00 in0.0 mm 0.00 in0.0 mm 0.00 in0.0 mm
07:43 PM 65.9°F18.8°C 39.6°F4.2°C 38% 1.0 mph W1.6 kmh W 3.0 mph4.8 kmh 30.12 in1020.0 mb 0.00 in0.0 mm 0.00 in0.0 mm 0.00 in0.0 mm
07:48 PM 65.7°F18.7°C 38.7°F3.7°C 37% 1.0 mph W1.6 kmh W 3.0 mph4.8 kmh 30.12 in1020.0 mb 0.00 in0.0 mm 0.00 in0.0 mm 0.00 in0.0 mm
07:53 PM 65.6°F18.7°C 39.3°F4.1°C 38% Calm Calm 3.0 mph4.8 kmh 30.13 in1020.3 mb 0.00 in0.0 mm 0.00 in0.0 mm 0.00 in0.0 mm
07:58 PM 65.5°F18.6°C 38.5°F3.6°C 37% 1.6 mph WNW2.6 kmh WNW 3.0 mph4.8 kmh 30.13 in1020.3 mb 0.00 in0.0 mm 0.00 in0.0 mm 0.00 in0.0 mm
08:03 PM 65.3°F18.5°C 39.0°F3.9°C 38% 1.0 mph W1.6 kmh W 3.0 mph4.8 kmh 30.13 in1020.3 mb 0.00 in0.0 mm 0.00 in0.0 mm 0.00 in0.0 mm
08:08 PM 65.0°F18.3°C 39.3°F4.1°C 39% 1.4 mph W2.3 kmh W 4.0 mph6.4 kmh 30.13 in1020.3 mb 0.00 in0.0 mm 0.00 in0.0 mm 0.00 in0.0 mm
08:13 PM 64.9°F18.3°C 39.2°F4.0°C 39% 2.6 mph WNW4.2 kmh WNW 6.0 mph9.7 kmh 30.13 in1020.3 mb 0.00 in0.0 mm 0.00 in0.0 mm 0.00 in0.0 mm
08:18 PM 65.0°F18.3°C 38.6°F3.7°C 38% 1.7 mph WNW2.7 kmh WNW 6.0 mph9.7 kmh 30.13 in1020.3 mb 0.00 in0.0 mm 0.00 in0.0 mm 0.00 in0.0 mm
08:23 PM 65.0°F18.3°C 38.8°F3.8°C 38% 1.3 mph WNW2.1 kmh WNW 6.0 mph9.7 kmh 30.14 in1020.7 mb 0.00 in0.0 mm 0.00 in0.0 mm 0.00 in0.0 mm
08:28 PM 65.2°F18.4°C 38.3°F3.5°C 37% 1.9 mph WNW3.1 kmh WNW 6.0 mph9.7 kmh 30.14 in1020.7 mb 0.00 in0.0 mm 0.00 in0.0 mm 0.00 in0.0 mm
08:33 PM 65.2°F18.4°C 38.3°F3.5°C 37% 1.7 mph NW2.7 kmh NW 4.0 mph6.4 kmh 30.14 in1020.7 mb 0.00 in0.0 mm 0.00 in0.0 mm 0.00 in0.0 mm
08:38 PM 64.9°F18.3°C 38.5°F3.6°C 38% 1.2 mph W1.9 kmh W 4.0 mph6.4 kmh 30.15 in1021.0 mb 0.00 in0.0 mm 0.00 in0.0 mm 0.00 in0.0 mm
08:43 PM 64.6°F18.1°C 38.2°F3.4°C 38% 1.1 mph W1.8 kmh W 4.0 mph6.4 kmh 30.15 in1021.0 mb 0.00 in0.0 mm 0.00 in0.0 mm 0.00 in0.0 mm
08:48 PM 64.4°F18.0°C 38.9°F3.8°C 39% 1.8 mph WNW2.9 kmh WNW 4.0 mph6.4 kmh 30.15 in1021.0 mb 0.00 in0.0 mm 0.00 in0.0 mm 0.00 in0.0 mm
08:53 PM 64.0°F17.8°C 39.2°F4.0°C 40% 1.0 mph W1.6 kmh W 4.0 mph6.4 kmh 30.15 in1021.0 mb 0.00 in0.0 mm 0.00 in0.0 mm 0.00 in0.0 mm
08:58 PM 63.5°F17.5°C 39.2°F4.0°C 41% 1.0 mph W1.6 kmh W 4.0 mph6.4 kmh 30.15 in1021.0 mb 0.00 in0.0 mm 0.00 in0.0 mm 0.00 in0.0 mm
09:04 PM 63.1°F17.3°C 38.9°F3.8°C 41% 1.0 mph SW1.6 kmh SW 4.0 mph6.4 kmh 30.15 in1021.0 mb 0.00 in0.0 mm 0.00 in0.0 mm 0.00 in0.0 mm
09:08 PM 62.8°F17.1°C 39.2°F4.0°C 42% Calm Calm 2.0 mph3.2 kmh 30.15 in1021.0 mb 0.00 in0.0 mm 0.00 in0.0 mm 0.00 in0.0 mm
09:14 PM 62.6°F17.0°C 39.1°F3.9°C 42% 1.0 mph W1.6 kmh W 2.0 mph3.2 kmh 30.15 in1021.0 mb 0.00 in0.0 mm 0.00 in0.0 mm 0.00 in0.0 mm
09:19 PM 62.6°F17.0°C 39.1°F3.9°C 42% 1.1 mph W1.8 kmh W 2.0 mph3.2 kmh 30.16 in1021.3 mb 0.00 in0.0 mm 0.00 in0.0 mm 0.00 in0.0 mm
09:23 PM 62.5°F16.9°C 39.0°F3.9°C 42% 1.4 mph W2.3 kmh W 2.0 mph3.2 kmh 30.15 in1021.0 mb 0.00 in0.0 mm 0.00 in0.0 mm 0.00 in0.0 mm
09:29 PM 62.2°F16.8°C 39.3°F4.1°C 43% 1.0 mph WSW1.6 kmh WSW 2.0 mph3.2 kmh 30.16 in1021.3 mb 0.00 in0.0 mm 0.00 in0.0 mm 0.00 in0.0 mm
09:34 PM 62.0°F16.7°C 39.1°F3.9°C 43% 1.0 mph WSW1.6 kmh WSW 3.0 mph4.8 kmh 30.16 in1021.3 mb 0.00 in0.0 mm 0.00 in0.0 mm 0.00 in0.0 mm
09:38 PM 62.0°F16.7°C 39.1°F3.9°C 43% 1.2 mph W1.9 kmh W 3.0 mph4.8 kmh 30.16 in1021.3 mb 0.00 in0.0 mm 0.00 in0.0 mm 0.00 in0.0 mm
09:43 PM 62.0°F16.7°C 39.1°F3.9°C 43% 1.0 mph W1.6 kmh W 3.0 mph4.8 kmh 30.16 in1021.3 mb 0.00 in0.0 mm 0.00 in0.0 mm 0.00 in0.0 mm
09:48 PM 62.0°F16.7°C 38.5°F3.6°C 42% 1.0 mph W1.6 kmh W 3.0 mph4.8 kmh 30.16 in1021.3 mb 0.00 in0.0 mm 0.00 in0.0 mm 0.00 in0.0 mm
09:53 PM 62.0°F16.7°C 38.5°F3.6°C 42% 1.0 mph W1.6 kmh W 3.0 mph4.8 kmh 30.16 in1021.3 mb 0.00 in0.0 mm 0.00 in0.0 mm 0.00 in0.0 mm
09:58 PM 62.0°F16.7°C 38.5°F3.6°C 42% 1.5 mph WSW2.4 kmh WSW 2.0 mph3.2 kmh 30.16 in1021.3 mb 0.00 in0.0 mm 0.00 in0.0 mm 0.00 in0.0 mm
10:02 PM 61.9°F16.6°C 38.5°F3.6°C 42% 1.0 mph W1.6 kmh W 2.0 mph3.2 kmh 30.16 in1021.3 mb 0.00 in0.0 mm 0.00 in0.0 mm 0.00 in0.0 mm
10:08 PM 61.5°F16.4°C 38.8°F3.8°C 43% 1.0 mph W1.6 kmh W 2.0 mph3.2 kmh 30.16 in1021.3 mb 0.00 in0.0 mm 0.00 in0.0 mm 0.00 in0.0 mm
10:13 PM 61.6°F16.4°C 38.9°F3.8°C 43% 1.2 mph WNW1.9 kmh WNW 2.0 mph3.2 kmh 30.16 in1021.3 mb 0.00 in0.0 mm 0.00 in0.0 mm 0.00 in0.0 mm
10:18 PM 61.5°F16.4°C 38.7°F3.7°C 43% Calm Calm 2.0 mph3.2 kmh 30.16 in1021.3 mb 0.00 in0.0 mm 0.00 in0.0 mm 0.00 in0.0 mm
10:23 PM 61.3°F16.3°C 38.5°F3.6°C 43% 1.3 mph WNW2.1 kmh WNW 2.0 mph3.2 kmh 30.17 in1021.7 mb 0.00 in0.0 mm 0.00 in0.0 mm 0.00 in0.0 mm
10:28 PM 61.1°F16.2°C 38.9°F3.8°C 44% Calm Calm 2.0 mph3.2 kmh 30.17 in1021.7 mb 0.00 in0.0 mm 0.00 in0.0 mm 0.00 in0.0 mm
10:33 PM 60.7°F15.9°C 38.6°F3.7°C 44% 1.0 mph W1.6 kmh W 2.0 mph3.2 kmh 30.17 in1021.7 mb 0.00 in0.0 mm 0.00 in0.0 mm 0.00 in0.0 mm
10:38 PM 60.5°F15.8°C 39.0°F3.9°C 45% 1.0 mph NW1.6 kmh NW 2.0 mph3.2 kmh 30.17 in1021.7 mb 0.00 in0.0 mm 0.00 in0.0 mm 0.00 in0.0 mm
10:43 PM 60.2°F15.7°C 38.7°F3.7°C 45% Calm Calm 2.0 mph3.2 kmh 30.17 in1021.7 mb 0.00 in0.0 mm 0.00 in0.0 mm 0.00 in0.0 mm
10:48 PM 60.0°F15.6°C 39.1°F3.9°C 46% 1.0 mph W1.6 kmh W 2.0 mph3.2 kmh 30.17 in1021.7 mb 0.00 in0.0 mm 0.00 in0.0 mm 0.00 in0.0 mm
10:53 PM 60.0°F15.6°C 39.1°F3.9°C 46% 1.0 mph W1.6 kmh W 2.0 mph3.2 kmh 30.17 in1021.7 mb 0.00 in0.0 mm 0.00 in0.0 mm 0.00 in0.0 mm
10:58 PM 59.9°F15.5°C 39.1°F3.9°C 46% 1.0 mph W1.6 kmh W 1.0 mph1.6 kmh 30.17 in1021.7 mb 0.00 in0.0 mm 0.00 in0.0 mm 0.00 in0.0 mm
11:03 PM 59.6°F15.3°C 39.3°F4.1°C 47% 1.0 mph W1.6 kmh W 2.0 mph3.2 kmh 30.17 in1021.7 mb 0.00 in0.0 mm 0.00 in0.0 mm 0.00 in0.0 mm
11:08 PM 59.3°F15.2°C 39.0°F3.9°C 47% 1.0 mph WSW1.6 kmh WSW 2.0 mph3.2 kmh 30.17 in1021.7 mb 0.00 in0.0 mm 0.00 in0.0 mm 0.00 in0.0 mm
11:13 PM 59.1°F15.1°C 38.8°F3.8°C 47% 1.0 mph WSW1.6 kmh WSW 2.0 mph3.2 kmh 30.17 in1021.7 mb 0.00 in0.0 mm 0.00 in0.0 mm 0.00 in0.0 mm
11:18 PM 59.0°F15.0°C 38.7°F3.7°C 47% 1.0 mph W1.6 kmh W 2.0 mph3.2 kmh 30.17 in1021.7 mb 0.00 in0.0 mm 0.00 in0.0 mm 0.00 in0.0 mm
11:23 PM 59.0°F15.0°C 38.7°F3.7°C 47% 1.0 mph W1.6 kmh W 1.0 mph1.6 kmh 30.17 in1021.7 mb 0.00 in0.0 mm 0.00 in0.0 mm 0.00 in0.0 mm
11:28 PM 59.0°F15.0°C 38.8°F3.8°C 47% Calm Calm 1.0 mph1.6 kmh 30.17 in1021.7 mb 0.00 in0.0 mm 0.00 in0.0 mm 0.00 in0.0 mm
11:33 PM 59.3°F15.2°C 39.0°F3.9°C 47% 1.0 mph W1.6 kmh W 1.0 mph1.6 kmh 30.17 in1021.7 mb 0.00 in0.0 mm 0.00 in0.0 mm 0.00 in0.0 mm
11:38 PM 59.5°F15.3°C 38.6°F3.7°C 46% 1.1 mph W1.8 kmh W 2.0 mph3.2 kmh 30.17 in1021.7 mb 0.00 in0.0 mm 0.00 in0.0 mm 0.00 in0.0 mm
11:43 PM 59.6°F15.3°C 38.8°F3.8°C 46% 1.1 mph W1.8 kmh W 2.0 mph3.2 kmh 30.17 in1021.7 mb 0.00 in0.0 mm 0.00 in0.0 mm 0.00 in0.0 mm
11:48 PM 59.9°F15.5°C 38.4°F3.6°C 45% 1.1 mph WNW1.8 kmh WNW 2.0 mph3.2 kmh 30.17 in1021.7 mb 0.00 in0.0 mm 0.00 in0.0 mm 0.00 in0.0 mm
11:53 PM 60.0°F15.6°C 38.5°F3.6°C 45% 1.0 mph WNW1.6 kmh WNW 2.0 mph3.2 kmh 30.17 in1021.7 mb 0.00 in0.0 mm 0.00 in0.0 mm 0.00 in0.0 mm
11:58 PM 60.1°F15.6°C 38.6°F3.7°C 45% 1.1 mph WNW1.8 kmh WNW 2.0 mph3.2 kmh 30.17 in1021.7 mb 0.00 in0.0 mm 0.00 in0.0 mm 0.00 in0.0 mm